Saint Benedict, Louisiana
Current Conditions -  °F | °C
As of 9:55 AM on Thursday 23 Oct 2014 (Local Time) from KHDC Reporting Station
Clear Clear  
Wind Chill: 63°   Ceiling: Unl
Heat Index: 63°   Visibility: 10mi
Dew Point: 45°   Wind: 5mph
Humidity: 52%   Direction: 70°ENE
Pressure: 30.15"   Gusts: NA
Location:  30.53°N, 90.11°W
Report Text: KHDC 231455Z AUTO 07004KT 10SM CLR 17/07 A3015 RMK AO2
Loading
Personal Weather Stations






























Interactive Weather Map
Tropical Storm Tracking
New forecast layout! Learn more

10-Day Weather Forecast

Advertisements
Track Severe Weather on mobile